Main page
METAR-TAF:

Airports :

Cologne, Germany

Cologne Bonn Airport

latitude: 50-52N, longitude: 007-10E, elevation: 91 m

Current weather observation

The report was made 17 minutes ago, at 02:50 UTC
Wind 6 kt from the East/Northeast
Temperature 12°C
Humidity 100%
Pressure 1025 hPa
Visibility 10 km or more
Shallow fog

METAR: EDDK 300250Z 06006KT 9999 MIFG NSC 12/12 Q1025 NOSIG

Time: 05:07 (03:07 UTC)

Forecast

The report was made 4 hours and 7 minutes ago, at 23:00 UTC
Forecast valid from 30 at 00 UTC to 31 at 06 UTC
Wind 3 kt from variable directions
Visibility 10 km or more
Few clouds at a height of 4000 ft
Probability 30% :
Temporary
from 30 at 00 UTC to 30 at 07 UTC
Visibility: 0700 m
patches of fog

TAF: EDDK 292300Z 3000/3106 VRB03KT 9999 FEW040 PROB30 TEMPO 3000/3007 0700 BCFG

METAR-TAF

Weather observations and forecasts of more than 4000 airports (METAR and TAF reports).

The available stations are represented by yellow and red dots on the map.

Hover mouse over dot to see the name of the station.

Then click to see weather observations and forecasts.

To change the map : click on the green buttons with a black cross to zoom in, on the green button with a dash to zoom out, or on the green arrows for adjacent maps.


METAR-TAF: